sensor_id;sensor_type;location;lat;lon;timestamp;P1;durP1;ratioP1;P2;durP2;ratioP2
53040;SDS011;39326;42.650;23.248;2023-01-24T00:00:27;4.83;;;3.50;;
53040;SDS011;39326;42.650;23.248;2023-01-24T00:02:53;6.37;;;4.57;;
53040;SDS011;39326;42.650;23.248;2023-01-24T00:05:18;5.07;;;4.27;;
53040;SDS011;39326;42.650;23.248;2023-01-24T00:07:44;5.30;;;4.60;;
53040;SDS011;39326;42.650;23.248;2023-01-24T00:10:10;5.47;;;4.80;;
53040;SDS011;39326;42.650;23.248;2023-01-24T00:12:36;6.33;;;4.47;;
53040;SDS011;39326;42.650;23.248;2023-01-24T00:15:01;4.07;;;2.90;;
53040;SDS011;39326;42.650;23.248;2023-01-24T00:17:27;5.87;;;4.03;;
53040;SDS011;39326;42.650;23.248;2023-01-24T00:19:52;5.63;;;4.17;;
53040;SDS011;39326;42.650;23.248;2023-01-24T00:22:17;5.00;;;4.27;;
53040;SDS011;39326;42.650;23.248;2023-01-24T00:24:43;4.77;;;3.70;;
53040;SDS011;39326;42.650;23.248;2023-01-24T00:27:08;6.00;;;4.20;;
53040;SDS011;39326;42.650;23.248;2023-01-24T00:29:33;4.43;;;3.67;;
53040;SDS011;39326;42.650;23.248;2023-01-24T00:31:59;5.10;;;4.10;;
53040;SDS011;39326;42.650;23.248;2023-01-24T00:34:24;5.70;;;4.60;;
53040;SDS011;39326;42.650;23.248;2023-01-24T00:36:50;6.33;;;4.90;;
53040;SDS011;39326;42.650;23.248;2023-01-24T00:39:15;6.50;;;4.50;;
53040;SDS011;39326;42.650;23.248;2023-01-24T00:41:41;5.00;;;4.50;;
53040;SDS011;39326;42.650;23.248;2023-01-24T00:44:06;4.50;;;3.93;;
53040;SDS011;39326;42.650;23.248;2023-01-24T00:46:32;5.27;;;4.00;;
53040;SDS011;39326;42.650;23.248;2023-01-24T00:48:57;6.97;;;5.57;;
53040;SDS011;39326;42.650;23.248;2023-01-24T00:51:25;6.00;;;5.03;;
53040;SDS011;39326;42.650;23.248;2023-01-24T00:53:50;7.97;;;5.63;;
53040;SDS011;39326;42.650;23.248;2023-01-24T00:56:16;6.53;;;5.60;;
53040;SDS011;39326;42.650;23.248;2023-01-24T00:58:41;4.73;;;4.07;;
53040;SDS011;39326;42.650;23.248;2023-01-24T01:01:07;6.03;;;4.93;;
53040;SDS011;39326;42.650;23.248;2023-01-24T01:03:32;7.43;;;5.10;;
53040;SDS011;39326;42.650;23.248;2023-01-24T01:06:03;5.13;;;3.97;;
53040;SDS011;39326;42.650;23.248;2023-01-24T01:08:30;7.50;;;5.37;;
53040;SDS011;39326;42.650;23.248;2023-01-24T01:10:56;7.73;;;5.87;;
53040;SDS011;39326;42.650;23.248;2023-01-24T01:13:22;7.63;;;5.20;;
53040;SDS011;39326;42.650;23.248;2023-01-24T01:15:48;8.43;;;6.17;;
53040;SDS011;39326;42.650;23.248;2023-01-24T01:18:13;8.30;;;5.50;;
53040;SDS011;39326;42.650;23.248;2023-01-24T01:20:39;7.53;;;5.20;;
53040;SDS011;39326;42.650;23.248;2023-01-24T01:23:04;6.03;;;5.37;;
53040;SDS011;39326;42.650;23.248;2023-01-24T01:25:30;7.53;;;5.83;;
53040;SDS011;39326;42.650;23.248;2023-01-24T01:27:56;7.50;;;5.73;;
53040;SDS011;39326;42.650;23.248;2023-01-24T01:30:21;6.33;;;5.47;;
53040;SDS011;39326;42.650;23.248;2023-01-24T01:32:47;6.07;;;5.30;;
53040;SDS011;39326;42.650;23.248;2023-01-24T01:35:12;6.03;;;5.40;;
53040;SDS011;39326;42.650;23.248;2023-01-24T01:37:38;6.13;;;5.40;;
53040;SDS011;39326;42.650;23.248;2023-01-24T01:40:03;7.13;;;5.43;;
53040;SDS011;39326;42.650;23.248;2023-01-24T01:42:48;7.70;;;5.57;;
53040;SDS011;39326;42.650;23.248;2023-01-24T01:48:12;7.20;;;5.37;;
53040;SDS011;39326;42.650;23.248;2023-01-24T01:50:46;7.37;;;5.93;;
53040;SDS011;39326;42.650;23.248;2023-01-24T01:53:18;7.67;;;5.47;;
53040;SDS011;39326;42.650;23.248;2023-01-24T01:55:47;7.03;;;6.33;;
53040;SDS011;39326;42.650;23.248;2023-01-24T01:58:15;5.97;;;4.97;;
53040;SDS011;39326;42.650;23.248;2023-01-24T02:00:42;6.93;;;5.50;;
53040;SDS011;39326;42.650;23.248;2023-01-24T02:03:15;7.80;;;6.03;;
53040;SDS011;39326;42.650;23.248;2023-01-24T02:06:08;6.43;;;5.00;;
53040;SDS011;39326;42.650;23.248;2023-01-24T02:08:42;6.57;;;4.60;;
53040;SDS011;39326;42.650;23.248;2023-01-24T02:11:08;4.43;;;3.53;;
53040;SDS011;39326;42.650;23.248;2023-01-24T02:13:53;6.40;;;5.50;;
53040;SDS011;39326;42.650;23.248;2023-01-24T02:16:39;4.77;;;4.20;;
53040;SDS011;39326;42.650;23.248;2023-01-24T02:19:06;5.83;;;4.77;;
53040;SDS011;39326;42.650;23.248;2023-01-24T02:21:36;5.07;;;4.53;;
53040;SDS011;39326;42.650;23.248;2023-01-24T02:24:03;4.70;;;4.10;;
53040;SDS011;39326;42.650;23.248;2023-01-24T02:26:35;5.10;;;3.60;;
53040;SDS011;39326;42.650;23.248;2023-01-24T02:29:02;5.33;;;4.10;;
53040;SDS011;39326;42.650;23.248;2023-01-24T02:31:50;6.13;;;4.17;;
53040;SDS011;39326;42.650;23.248;2023-01-24T02:34:27;4.83;;;3.37;;
53040;SDS011;39326;42.650;23.248;2023-01-24T02:36:56;6.23;;;4.67;;
53040;SDS011;39326;42.650;23.248;2023-01-24T02:39:32;5.70;;;4.57;;
53040;SDS011;39326;42.650;23.248;2023-01-24T02:42:05;5.80;;;3.83;;
53040;SDS011;39326;42.650;23.248;2023-01-24T02:44:40;5.00;;;4.47;;
53040;SDS011;39326;42.650;23.248;2023-01-24T02:47:11;7.77;;;4.40;;
53040;SDS011;39326;42.650;23.248;2023-01-24T02:49:37;4.43;;;4.03;;
53040;SDS011;39326;42.650;23.248;2023-01-24T02:52:02;5.97;;;4.20;;
53040;SDS011;39326;42.650;23.248;2023-01-24T02:54:46;4.93;;;3.67;;
53040;SDS011;39326;42.650;23.248;2023-01-24T02:57:12;4.57;;;4.00;;
53040;SDS011;39326;42.650;23.248;2023-01-24T02:59:56;5.27;;;3.40;;
53040;SDS011;39326;42.650;23.248;2023-01-24T03:02:21;4.80;;;3.77;;
53040;SDS011;39326;42.650;23.248;2023-01-24T03:04:46;5.73;;;4.03;;
53040;SDS011;39326;42.650;23.248;2023-01-24T03:07:12;3.53;;;2.70;;
53040;SDS011;39326;42.650;23.248;2023-01-24T03:09:38;4.90;;;3.73;;
53040;SDS011;39326;42.650;23.248;2023-01-24T03:12:11;4.33;;;3.50;;
53040;SDS011;39326;42.650;23.248;2023-01-24T03:14:55;3.83;;;3.03;;
53040;SDS011;39326;42.650;23.248;2023-01-24T03:17:38;4.83;;;3.90;;
53040;SDS011;39326;42.650;23.248;2023-01-24T03:20:22;4.57;;;3.50;;
53040;SDS011;39326;42.650;23.248;2023-01-24T03:23:06;4.30;;;3.57;;
53040;SDS011;39326;42.650;23.248;2023-01-24T03:25:54;4.13;;;3.63;;
53040;SDS011;39326;42.650;23.248;2023-01-24T03:28:41;5.10;;;4.03;;
53040;SDS011;39326;42.650;23.248;2023-01-24T03:31:25;2.90;;;2.37;;
53040;SDS011;39326;42.650;23.248;2023-01-24T03:34:10;4.73;;;3.87;;
53040;SDS011;39326;42.650;23.248;2023-01-24T03:36:54;3.97;;;3.30;;
53040;SDS011;39326;42.650;23.248;2023-01-24T03:39:20;5.37;;;3.77;;
53040;SDS011;39326;42.650;23.248;2023-01-24T03:42:12;4.40;;;3.90;;
53040;SDS011;39326;42.650;23.248;2023-01-24T03:44:37;4.57;;;4.13;;
53040;SDS011;39326;42.650;23.248;2023-01-24T03:47:02;4.13;;;3.07;;
53040;SDS011;39326;42.650;23.248;2023-01-24T03:49:28;4.60;;;3.60;;
53040;SDS011;39326;42.650;23.248;2023-01-24T03:52:12;3.80;;;3.47;;
53040;SDS011;39326;42.650;23.248;2023-01-24T03:54:54;4.30;;;3.90;;
53040;SDS011;39326;42.650;23.248;2023-01-24T03:57:20;4.17;;;3.60;;
53040;SDS011;39326;42.650;23.248;2023-01-24T03:59:46;3.73;;;3.43;;
53040;SDS011;39326;42.650;23.248;2023-01-24T04:02:11;3.70;;;3.40;;
53040;SDS011;39326;42.650;23.248;2023-01-24T04:04:37;3.60;;;3.30;;
53040;SDS011;39326;42.650;23.248;2023-01-24T04:07:21;3.30;;;2.77;;
53040;SDS011;39326;42.650;23.248;2023-01-24T04:09:46;3.97;;;3.10;;
53040;SDS011;39326;42.650;23.248;2023-01-24T04:12:12;3.70;;;2.93;;
53040;SDS011;39326;42.650;23.248;2023-01-24T04:14:37;3.80;;;3.40;;
53040;SDS011;39326;42.650;23.248;2023-01-24T04:17:02;3.57;;;3.17;;
53040;SDS011;39326;42.650;23.248;2023-01-24T04:19:28;3.13;;;2.57;;
53040;SDS011;39326;42.650;23.248;2023-01-24T04:21:53;3.03;;;2.73;;
53040;SDS011;39326;42.650;23.248;2023-01-24T04:24:22;4.47;;;3.30;;
53040;SDS011;39326;42.650;23.248;2023-01-24T04:26:47;3.33;;;3.00;;
53040;SDS011;39326;42.650;23.248;2023-01-24T04:29:13;3.83;;;3.17;;
53040;SDS011;39326;42.650;23.248;2023-01-24T04:31:38;3.53;;;2.83;;
53040;SDS011;39326;42.650;23.248;2023-01-24T04:34:04;3.40;;;2.70;;
53040;SDS011;39326;42.650;23.248;2023-01-24T04:36:29;3.57;;;2.77;;
53040;SDS011;39326;42.650;23.248;2023-01-24T04:38:54;3.83;;;3.37;;
53040;SDS011;39326;42.650;23.248;2023-01-24T04:41:20;2.67;;;2.40;;
53040;SDS011;39326;42.650;23.248;2023-01-24T04:43:46;2.57;;;2.37;;
53040;SDS011;39326;42.650;23.248;2023-01-24T04:46:11;3.67;;;2.90;;
53040;SDS011;39326;42.650;23.248;2023-01-24T04:48:36;3.43;;;3.13;;
53040;SDS011;39326;42.650;23.248;2023-01-24T04:51:02;3.60;;;3.07;;
53040;SDS011;39326;42.650;23.248;2023-01-24T04:53:27;3.73;;;3.00;;
53040;SDS011;39326;42.650;23.248;2023-01-24T04:55:54;3.30;;;2.80;;
53040;SDS011;39326;42.650;23.248;2023-01-24T04:58:25;5.07;;;3.60;;
53040;SDS011;39326;42.650;23.248;2023-01-24T05:00:50;3.43;;;3.13;;
53040;SDS011;39326;42.650;23.248;2023-01-24T05:03:17;2.70;;;2.07;;
53040;SDS011;39326;42.650;23.248;2023-01-24T05:05:43;3.30;;;2.90;;
53040;SDS011;39326;42.650;23.248;2023-01-24T05:08:08;3.50;;;2.90;;
53040;SDS011;39326;42.650;23.248;2023-01-24T05:10:34;3.97;;;3.20;;
53040;SDS011;39326;42.650;23.248;2023-01-24T05:12:59;2.80;;;2.60;;
53040;SDS011;39326;42.650;23.248;2023-01-24T05:15:24;4.03;;;3.63;;
53040;SDS011;39326;42.650;23.248;2023-01-24T05:17:51;3.63;;;3.33;;
53040;SDS011;39326;42.650;23.248;2023-01-24T05:20:17;4.03;;;3.63;;
53040;SDS011;39326;42.650;23.248;2023-01-24T05:22:42;4.13;;;3.60;;
53040;SDS011;39326;42.650;23.248;2023-01-24T05:25:11;4.57;;;4.17;;
53040;SDS011;39326;42.650;23.248;2023-01-24T05:27:39;4.43;;;4.00;;
53040;SDS011;39326;42.650;23.248;2023-01-24T05:30:05;4.07;;;3.67;;
53040;SDS011;39326;42.650;23.248;2023-01-24T05:32:31;5.83;;;4.50;;
53040;SDS011;39326;42.650;23.248;2023-01-24T05:34:57;4.30;;;3.90;;
53040;SDS011;39326;42.650;23.248;2023-01-24T05:37:22;4.03;;;3.70;;
53040;SDS011;39326;42.650;23.248;2023-01-24T05:39:47;5.00;;;4.50;;
53040;SDS011;39326;42.650;23.248;2023-01-24T05:42:13;4.33;;;3.93;;
53040;SDS011;39326;42.650;23.248;2023-01-24T05:44:38;4.20;;;3.90;;
53040;SDS011;39326;42.650;23.248;2023-01-24T05:47:04;6.53;;;4.70;;
53040;SDS011;39326;42.650;23.248;2023-01-24T05:49:29;5.00;;;4.60;;
53040;SDS011;39326;42.650;23.248;2023-01-24T05:51:55;4.63;;;3.93;;
53040;SDS011;39326;42.650;23.248;2023-01-24T05:54:20;5.73;;;5.17;;
53040;SDS011;39326;42.650;23.248;2023-01-24T05:56:45;6.27;;;4.90;;
53040;SDS011;39326;42.650;23.248;2023-01-24T05:59:11;6.30;;;4.70;;
53040;SDS011;39326;42.650;23.248;2023-01-24T06:01:38;4.83;;;3.77;;
53040;SDS011;39326;42.650;23.248;2023-01-24T06:04:04;5.70;;;4.03;;
53040;SDS011;39326;42.650;23.248;2023-01-24T06:06:30;4.27;;;3.87;;
53040;SDS011;39326;42.650;23.248;2023-01-24T06:08:55;4.90;;;2.87;;
53040;SDS011;39326;42.650;23.248;2023-01-24T06:11:22;3.77;;;3.47;;
53040;SDS011;39326;42.650;23.248;2023-01-24T06:13:49;5.27;;;4.00;;
53040;SDS011;39326;42.650;23.248;2023-01-24T06:16:16;4.30;;;3.90;;
53040;SDS011;39326;42.650;23.248;2023-01-24T06:18:43;4.10;;;3.70;;
53040;SDS011;39326;42.650;23.248;2023-01-24T06:23:46;4.57;;;3.80;;
53040;SDS011;39326;42.650;23.248;2023-01-24T06:26:11;4.13;;;3.73;;
53040;SDS011;39326;42.650;23.248;2023-01-24T06:28:37;3.93;;;3.50;;
53040;SDS011;39326;42.650;23.248;2023-01-24T06:31:05;3.97;;;3.53;;
53040;SDS011;39326;42.650;23.248;2023-01-24T06:39:38;6.03;;;5.43;;
53040;SDS011;39326;42.650;23.248;2023-01-24T06:42:04;6.13;;;5.57;;
53040;SDS011;39326;42.650;23.248;2023-01-24T06:44:30;6.53;;;5.93;;
53040;SDS011;39326;42.650;23.248;2023-01-24T06:46:56;7.60;;;6.43;;
53040;SDS011;39326;42.650;23.248;2023-01-24T06:49:21;6.90;;;5.43;;
53040;SDS011;39326;42.650;23.248;2023-01-24T06:51:50;5.23;;;4.33;;
53040;SDS011;39326;42.650;23.248;2023-01-24T06:54:16;6.80;;;5.87;;
53040;SDS011;39326;42.650;23.248;2023-01-24T06:56:42;5.97;;;5.37;;
53040;SDS011;39326;42.650;23.248;2023-01-24T06:59:07;6.43;;;5.13;;
53040;SDS011;39326;42.650;23.248;2023-01-24T07:01:33;75.47;;;9.60;;
53040;SDS011;39326;42.650;23.248;2023-01-24T07:03:58;7.23;;;4.17;;
53040;SDS011;39326;42.650;23.248;2023-01-24T07:06:23;11.17;;;4.67;;
53040;SDS011;39326;42.650;23.248;2023-01-24T07:08:49;7.00;;;6.30;;
53040;SDS011;39326;42.650;23.248;2023-01-24T07:11:15;10.07;;;6.57;;
53040;SDS011;39326;42.650;23.248;2023-01-24T07:13:40;14.03;;;6.07;;
53040;SDS011;39326;42.650;23.248;2023-01-24T07:16:05;102.40;;;11.57;;
53040;SDS011;39326;42.650;23.248;2023-01-24T07:18:31;19.43;;;6.93;;
53040;SDS011;39326;42.650;23.248;2023-01-24T07:20:57;12.77;;;5.77;;
53040;SDS011;39326;42.650;23.248;2023-01-24T07:23:23;9.77;;;5.80;;
53040;SDS011;39326;42.650;23.248;2023-01-24T07:25:53;12.03;;;7.53;;
53040;SDS011;39326;42.650;23.248;2023-01-24T07:28:20;8.07;;;5.03;;
53040;SDS011;39326;42.650;23.248;2023-01-24T07:30:45;79.50;;;13.97;;
53040;SDS011;39326;42.650;23.248;2023-01-24T07:33:14;10.67;;;6.17;;
53040;SDS011;39326;42.650;23.248;2023-01-24T07:35:40;6.77;;;6.17;;
53040;SDS011;39326;42.650;23.248;2023-01-24T07:38:06;6.70;;;6.00;;
53040;SDS011;39326;42.650;23.248;2023-01-24T07:40:32;157.87;;;18.50;;
53040;SDS011;39326;42.650;23.248;2023-01-24T07:43:00;6.67;;;6.00;;
53040;SDS011;39326;42.650;23.248;2023-01-24T07:45:27;7.47;;;6.07;;
53040;SDS011;39326;42.650;23.248;2023-01-24T07:47:56;6.60;;;5.90;;
53040;SDS011;39326;42.650;23.248;2023-01-24T07:50:23;7.40;;;6.60;;
53040;SDS011;39326;42.650;23.248;2023-01-24T07:52:53;8.10;;;7.07;;
53040;SDS011;39326;42.650;23.248;2023-01-24T07:55:20;7.50;;;6.50;;
53040;SDS011;39326;42.650;23.248;2023-01-24T07:57:47;9.73;;;5.87;;
53040;SDS011;39326;42.650;23.248;2023-01-24T08:00:13;20.27;;;7.37;;
53040;SDS011;39326;42.650;23.248;2023-01-24T08:02:39;112.27;;;13.53;;
53040;SDS011;39326;42.650;23.248;2023-01-24T08:05:05;136.40;;;15.43;;
53040;SDS011;39326;42.650;23.248;2023-01-24T08:07:31;68.83;;;11.20;;
53040;SDS011;39326;42.650;23.248;2023-01-24T08:09:57;121.07;;;12.67;;
53040;SDS011;39326;42.650;23.248;2023-01-24T08:12:22;11.27;;;4.97;;
53040;SDS011;39326;42.650;23.248;2023-01-24T08:14:48;34.30;;;8.73;;
53040;SDS011;39326;42.650;23.248;2023-01-24T08:17:14;8.00;;;5.50;;
53040;SDS011;39326;42.650;23.248;2023-01-24T08:19:40;7.13;;;5.00;;
53040;SDS011;39326;42.650;23.248;2023-01-24T08:22:05;8.10;;;5.73;;
53040;SDS011;39326;42.650;23.248;2023-01-24T08:24:31;6.33;;;5.33;;
53040;SDS011;39326;42.650;23.248;2023-01-24T08:26:57;5.10;;;4.60;;
53040;SDS011;39326;42.650;23.248;2023-01-24T08:29:24;5.03;;;4.53;;
53040;SDS011;39326;42.650;23.248;2023-01-24T08:31:49;7.13;;;5.67;;
53040;SDS011;39326;42.650;23.248;2023-01-24T08:34:15;4.80;;;4.40;;
53040;SDS011;39326;42.650;23.248;2023-01-24T08:36:40;7.77;;;4.33;;
53040;SDS011;39326;42.650;23.248;2023-01-24T08:39:05;4.70;;;4.00;;
53040;SDS011;39326;42.650;23.248;2023-01-24T08:41:31;6.73;;;5.27;;
53040;SDS011;39326;42.650;23.248;2023-01-24T08:43:56;8.30;;;4.50;;
53040;SDS011;39326;42.650;23.248;2023-01-24T08:46:22;51.57;;;8.33;;
53040;SDS011;39326;42.650;23.248;2023-01-24T08:48:47;5.50;;;4.43;;
53040;SDS011;39326;42.650;23.248;2023-01-24T08:51:13;7.57;;;5.30;;
53040;SDS011;39326;42.650;23.248;2023-01-24T08:53:38;5.23;;;4.73;;
53040;SDS011;39326;42.650;23.248;2023-01-24T08:56:04;6.57;;;4.47;;
53040;SDS011;39326;42.650;23.248;2023-01-24T08:58:29;6.13;;;2.73;;
53040;SDS011;39326;42.650;23.248;2023-01-24T09:00:57;6.67;;;4.47;;
53040;SDS011;39326;42.650;23.248;2023-01-24T09:03:22;5.57;;;4.87;;
53040;SDS011;39326;42.650;23.248;2023-01-24T09:05:47;4.37;;;3.97;;
53040;SDS011;39326;42.650;23.248;2023-01-24T09:08:13;8.13;;;5.47;;
53040;SDS011;39326;42.650;23.248;2023-01-24T09:10:39;12.33;;;5.70;;
53040;SDS011;39326;42.650;23.248;2023-01-24T09:13:04;7.60;;;6.23;;
53040;SDS011;39326;42.650;23.248;2023-01-24T09:15:30;6.30;;;5.30;;
53040;SDS011;39326;42.650;23.248;2023-01-24T09:17:55;10.53;;;4.97;;
53040;SDS011;39326;42.650;23.248;2023-01-24T09:20:21;8.97;;;6.40;;
53040;SDS011;39326;42.650;23.248;2023-01-24T09:22:47;7.83;;;5.67;;
53040;SDS011;39326;42.650;23.248;2023-01-24T09:25:12;7.50;;;6.07;;
53040;SDS011;39326;42.650;23.248;2023-01-24T09:27:38;7.93;;;6.87;;
53040;SDS011;39326;42.650;23.248;2023-01-24T09:30:07;8.97;;;6.80;;
53040;SDS011;39326;42.650;23.248;2023-01-24T09:32:34;7.50;;;6.80;;
53040;SDS011;39326;42.650;23.248;2023-01-24T09:34:59;6.23;;;5.63;;
53040;SDS011;39326;42.650;23.248;2023-01-24T09:37:25;6.83;;;6.17;;
53040;SDS011;39326;42.650;23.248;2023-01-24T09:39:51;7.07;;;6.13;;
53040;SDS011;39326;42.650;23.248;2023-01-24T09:45:17;6.40;;;5.80;;
53040;SDS011;39326;42.650;23.248;2023-01-24T09:47:56;6.47;;;5.80;;
53040;SDS011;39326;42.650;23.248;2023-01-24T09:50:27;8.30;;;6.47;;
53040;SDS011;39326;42.650;23.248;2023-01-24T09:52:55;6.70;;;5.53;;
53040;SDS011;39326;42.650;23.248;2023-01-24T09:55:27;6.67;;;5.93;;
53040;SDS011;39326;42.650;23.248;2023-01-24T10:00:35;6.57;;;5.63;;
53040;SDS011;39326;42.650;23.248;2023-01-24T10:03:03;5.20;;;4.70;;
53040;SDS011;39326;42.650;23.248;2023-01-24T10:05:34;9.57;;;5.13;;
53040;SDS011;39326;42.650;23.248;2023-01-24T10:11:00;6.40;;;4.00;;
53040;SDS011;39326;42.650;23.248;2023-01-24T10:13:41;5.33;;;4.83;;
53040;SDS011;39326;42.650;23.248;2023-01-24T10:16:42;5.57;;;5.07;;
53040;SDS011;39326;42.650;23.248;2023-01-24T10:19:30;3.77;;;3.27;;
53040;SDS011;39326;42.650;23.248;2023-01-24T10:25:03;7.90;;;4.57;;
53040;SDS011;39326;42.650;23.248;2023-01-24T10:27:35;5.63;;;4.60;;
53040;SDS011;39326;42.650;23.248;2023-01-24T10:30:15;6.17;;;5.50;;
53040;SDS011;39326;42.650;23.248;2023-01-24T10:32:46;5.97;;;5.37;;
53040;SDS011;39326;42.650;23.248;2023-01-24T10:35:20;4.53;;;4.13;;
53040;SDS011;39326;42.650;23.248;2023-01-24T10:37:52;4.37;;;3.97;;
53040;SDS011;39326;42.650;23.248;2023-01-24T10:40:22;3.70;;;3.10;;
53040;SDS011;39326;42.650;23.248;2023-01-24T10:42:49;7.47;;;2.67;;
53040;SDS011;39326;42.650;23.248;2023-01-24T10:50:51;3.70;;;3.37;;
53040;SDS011;39326;42.650;23.248;2023-01-24T10:55:50;4.17;;;3.77;;
53040;SDS011;39326;42.650;23.248;2023-01-24T10:58:42;5.10;;;4.60;;
53040;SDS011;39326;42.650;23.248;2023-01-24T11:01:33;7.00;;;5.50;;
53040;SDS011;39326;42.650;23.248;2023-01-24T11:04:24;4.90;;;4.47;;
53040;SDS011;39326;42.650;23.248;2023-01-24T11:06:52;4.13;;;3.40;;
53040;SDS011;39326;42.650;23.248;2023-01-24T11:09:19;2.67;;;2.33;;
53040;SDS011;39326;42.650;23.248;2023-01-24T11:11:52;3.07;;;2.73;;
53040;SDS011;39326;42.650;23.248;2023-01-24T11:14:23;4.13;;;2.70;;
53040;SDS011;39326;42.650;23.248;2023-01-24T11:16:51;4.40;;;3.13;;
53040;SDS011;39326;42.650;23.248;2023-01-24T11:22:02;4.00;;;3.10;;
53040;SDS011;39326;42.650;23.248;2023-01-24T11:24:44;3.73;;;3.23;;
53040;SDS011;39326;42.650;23.248;2023-01-24T11:27:15;3.60;;;3.13;;
53040;SDS011;39326;42.650;23.248;2023-01-24T11:29:49;3.33;;;3.00;;
53040;SDS011;39326;42.650;23.248;2023-01-24T11:32:52;2.97;;;2.67;;
53040;SDS011;39326;42.650;23.248;2023-01-24T11:35:22;3.37;;;3.07;;
53040;SDS011;39326;42.650;23.248;2023-01-24T11:46:16;4.70;;;4.20;;
53040;SDS011;39326;42.650;23.248;2023-01-24T12:02:21;5.37;;;4.70;;
53040;SDS011;39326;42.650;23.248;2023-01-24T12:05:05;4.07;;;3.67;;
53040;SDS011;39326;42.650;23.248;2023-01-24T12:15:51;3.20;;;2.90;;
53040;SDS011;39326;42.650;23.248;2023-01-24T12:18:27;4.10;;;3.70;;
53040;SDS011;39326;42.650;23.248;2023-01-24T12:21:06;4.27;;;3.67;;
53040;SDS011;39326;42.650;23.248;2023-01-24T12:26:06;4.33;;;3.77;;
53040;SDS011;39326;42.650;23.248;2023-01-24T12:28:41;5.50;;;4.43;;
53040;SDS011;39326;42.650;23.248;2023-01-24T12:31:15;4.13;;;3.57;;
53040;SDS011;39326;42.650;23.248;2023-01-24T12:34:04;4.57;;;3.80;;
53040;SDS011;39326;42.650;23.248;2023-01-24T12:36:56;3.67;;;3.37;;
53040;SDS011;39326;42.650;23.248;2023-01-24T12:39:29;4.17;;;3.80;;
53040;SDS011;39326;42.650;23.248;2023-01-24T12:42:04;3.63;;;3.33;;
53040;SDS011;39326;42.650;23.248;2023-01-24T12:44:42;3.20;;;2.90;;
53040;SDS011;39326;42.650;23.248;2023-01-24T12:47:23;3.27;;;3.03;;
53040;SDS011;39326;42.650;23.248;2023-01-24T12:58:03;3.50;;;3.20;;
53040;SDS011;39326;42.650;23.248;2023-01-24T13:03:34;3.20;;;2.87;;
53040;SDS011;39326;42.650;23.248;2023-01-24T13:08:38;4.47;;;2.90;;
53040;SDS011;39326;42.650;23.248;2023-01-24T13:11:24;2.87;;;2.63;;
53040;SDS011;39326;42.650;23.248;2023-01-24T13:21:35;5.57;;;3.30;;
53040;SDS011;39326;42.650;23.248;2023-01-24T13:34:43;3.17;;;2.87;;
53040;SDS011;39326;42.650;23.248;2023-01-24T13:37:28;2.77;;;2.37;;
53040;SDS011;39326;42.650;23.248;2023-01-24T13:42:41;3.37;;;3.07;;
53040;SDS011;39326;42.650;23.248;2023-01-24T13:47:51;3.00;;;2.80;;
53040;SDS011;39326;42.650;23.248;2023-01-24T13:50:19;4.03;;;3.10;;
53040;SDS011;39326;42.650;23.248;2023-01-24T13:52:52;4.40;;;3.77;;
53040;SDS011;39326;42.650;23.248;2023-01-24T13:57:45;4.77;;;3.70;;
53040;SDS011;39326;42.650;23.248;2023-01-24T14:02:40;5.57;;;3.80;;
53040;SDS011;39326;42.650;23.248;2023-01-24T14:07:57;5.67;;;3.93;;
53040;SDS011;39326;42.650;23.248;2023-01-24T14:10:43;6.53;;;4.20;;
53040;SDS011;39326;42.650;23.248;2023-01-24T14:16:07;4.57;;;4.17;;
53040;SDS011;39326;42.650;23.248;2023-01-24T14:18:47;4.03;;;3.73;;
53040;SDS011;39326;42.650;23.248;2023-01-24T14:21:25;4.90;;;4.00;;
53040;SDS011;39326;42.650;23.248;2023-01-24T14:24:01;5.23;;;4.60;;
53040;SDS011;39326;42.650;23.248;2023-01-24T14:26:43;4.53;;;4.10;;
53040;SDS011;39326;42.650;23.248;2023-01-24T14:29:15;5.43;;;4.73;;
53040;SDS011;39326;42.650;23.248;2023-01-24T14:31:41;3.93;;;3.53;;
53040;SDS011;39326;42.650;23.248;2023-01-24T14:34:25;4.53;;;4.13;;
53040;SDS011;39326;42.650;23.248;2023-01-24T14:36:58;4.47;;;4.07;;
53040;SDS011;39326;42.650;23.248;2023-01-24T14:39:27;4.53;;;4.13;;
53040;SDS011;39326;42.650;23.248;2023-01-24T14:41:56;5.07;;;4.00;;
53040;SDS011;39326;42.650;23.248;2023-01-24T14:46:53;4.40;;;4.00;;
53040;SDS011;39326;42.650;23.248;2023-01-24T14:50:02;4.97;;;4.47;;
53040;SDS011;39326;42.650;23.248;2023-01-24T14:54:49;5.07;;;4.57;;
53040;SDS011;39326;42.650;23.248;2023-01-24T14:57:38;6.03;;;5.43;;
53040;SDS011;39326;42.650;23.248;2023-01-24T15:02:28;4.90;;;4.50;;
53040;SDS011;39326;42.650;23.248;2023-01-24T15:04:53;4.70;;;4.30;;
53040;SDS011;39326;42.650;23.248;2023-01-24T15:07:19;5.50;;;5.00;;
53040;SDS011;39326;42.650;23.248;2023-01-24T15:09:47;5.47;;;4.97;;
53040;SDS011;39326;42.650;23.248;2023-01-24T15:12:23;5.40;;;4.87;;
53040;SDS011;39326;42.650;23.248;2023-01-24T15:14:53;5.70;;;5.10;;
53040;SDS011;39326;42.650;23.248;2023-01-24T15:17:24;6.63;;;6.03;;
53040;SDS011;39326;42.650;23.248;2023-01-24T15:19:52;6.67;;;5.50;;
53040;SDS011;39326;42.650;23.248;2023-01-24T15:22:23;5.63;;;5.10;;
53040;SDS011;39326;42.650;23.248;2023-01-24T15:24:51;5.60;;;5.00;;
53040;SDS011;39326;42.650;23.248;2023-01-24T15:27:20;5.77;;;5.23;;
53040;SDS011;39326;42.650;23.248;2023-01-24T15:40:45;5.00;;;4.50;;
53040;SDS011;39326;42.650;23.248;2023-01-24T15:43:47;5.27;;;4.80;;
53040;SDS011;39326;42.650;23.248;2023-01-24T15:54:31;5.17;;;4.70;;
53040;SDS011;39326;42.650;23.248;2023-01-24T15:56:58;7.53;;;6.17;;
53040;SDS011;39326;42.650;23.248;2023-01-24T15:59:27;6.23;;;5.60;;
53040;SDS011;39326;42.650;23.248;2023-01-24T16:01:53;6.90;;;6.20;;
53040;SDS011;39326;42.650;23.248;2023-01-24T16:04:19;6.50;;;5.90;;
53040;SDS011;39326;42.650;23.248;2023-01-24T16:06:47;6.83;;;6.13;;
53040;SDS011;39326;42.650;23.248;2023-01-24T16:09:12;8.40;;;7.60;;
53040;SDS011;39326;42.650;23.248;2023-01-24T16:11:39;7.00;;;6.30;;
53040;SDS011;39326;42.650;23.248;2023-01-24T16:14:06;8.87;;;7.97;;
53040;SDS011;39326;42.650;23.248;2023-01-24T16:16:37;8.63;;;7.83;;
53040;SDS011;39326;42.650;23.248;2023-01-24T16:19:07;10.33;;;9.00;;
53040;SDS011;39326;42.650;23.248;2023-01-24T16:21:38;10.27;;;8.47;;
53040;SDS011;39326;42.650;23.248;2023-01-24T16:24:03;9.60;;;7.60;;
53040;SDS011;39326;42.650;23.248;2023-01-24T16:26:29;8.40;;;7.60;;
53040;SDS011;39326;42.650;23.248;2023-01-24T16:28:54;10.40;;;9.30;;
53040;SDS011;39326;42.650;23.248;2023-01-24T16:31:20;11.33;;;10.23;;
53040;SDS011;39326;42.650;23.248;2023-01-24T16:33:45;10.67;;;9.57;;
53040;SDS011;39326;42.650;23.248;2023-01-24T16:36:11;9.63;;;8.70;;
53040;SDS011;39326;42.650;23.248;2023-01-24T16:38:39;9.50;;;8.60;;
53040;SDS011;39326;42.650;23.248;2023-01-24T16:41:05;10.93;;;9.77;;
53040;SDS011;39326;42.650;23.248;2023-01-24T16:43:30;11.10;;;10.00;;
53040;SDS011;39326;42.650;23.248;2023-01-24T16:45:56;9.93;;;8.93;;
53040;SDS011;39326;42.650;23.248;2023-01-24T16:48:21;11.23;;;10.13;;
53040;SDS011;39326;42.650;23.248;2023-01-24T16:50:47;9.73;;;8.80;;
53040;SDS011;39326;42.650;23.248;2023-01-24T16:53:13;9.43;;;8.53;;
53040;SDS011;39326;42.650;23.248;2023-01-24T16:55:40;9.77;;;8.87;;
53040;SDS011;39326;42.650;23.248;2023-01-24T16:58:06;10.17;;;9.10;;
53040;SDS011;39326;42.650;23.248;2023-01-24T17:00:32;10.50;;;9.50;;
53040;SDS011;39326;42.650;23.248;2023-01-24T17:02:58;10.30;;;9.40;;
53040;SDS011;39326;42.650;23.248;2023-01-24T17:05:25;11.53;;;10.43;;
53040;SDS011;39326;42.650;23.248;2023-01-24T17:07:52;10.97;;;9.87;;